sensor_id;sensor_type;location;lat;lon;timestamp;temperature;humidity
678;DHT22;321;48.814;9.132;2022-07-30T00:01:06;19.20;99.90
678;DHT22;321;48.814;9.132;2022-07-30T00:03:32;19.20;99.90
678;DHT22;321;48.814;9.132;2022-07-30T00:05:58;19.20;99.90
678;DHT22;321;48.814;9.132;2022-07-30T00:08:24;19.10;99.90
678;DHT22;321;48.814;9.132;2022-07-30T00:10:50;19.10;99.90
678;DHT22;321;48.814;9.132;2022-07-30T00:13:17;19.10;99.90
678;DHT22;321;48.814;9.132;2022-07-30T00:15:42;19.10;99.90
678;DHT22;321;48.814;9.132;2022-07-30T00:18:08;19.10;99.90
678;DHT22;321;48.814;9.132;2022-07-30T00:20:34;19.00;99.90
678;DHT22;321;48.814;9.132;2022-07-30T00:23:02;19.00;99.90
678;DHT22;321;48.814;9.132;2022-07-30T00:25:28;19.00;99.90
678;DHT22;321;48.814;9.132;2022-07-30T00:27:56;19.00;99.90
678;DHT22;321;48.814;9.132;2022-07-30T00:30:22;19.00;99.90
678;DHT22;321;48.814;9.132;2022-07-30T00:32:47;19.10;99.90
678;DHT22;321;48.814;9.132;2022-07-30T00:35:13;19.20;99.90
678;DHT22;321;48.814;9.132;2022-07-30T00:37:39;19.20;99.90
678;DHT22;321;48.814;9.132;2022-07-30T00:40:06;19.40;99.90
678;DHT22;321;48.814;9.132;2022-07-30T00:42:37;19.40;99.90
678;DHT22;321;48.814;9.132;2022-07-30T00:45:04;19.50;99.90
678;DHT22;321;48.814;9.132;2022-07-30T00:47:30;19.80;99.90
678;DHT22;321;48.814;9.132;2022-07-30T00:49:56;19.40;99.90
678;DHT22;321;48.814;9.132;2022-07-30T00:52:21;19.80;99.90
678;DHT22;321;48.814;9.132;2022-07-30T00:54:47;19.70;99.90
678;DHT22;321;48.814;9.132;2022-07-30T00:57:12;19.70;99.90
678;DHT22;321;48.814;9.132;2022-07-30T00:59:38;19.50;99.90
678;DHT22;321;48.814;9.132;2022-07-30T01:02:03;19.70;99.90
678;DHT22;321;48.814;9.132;2022-07-30T01:11:47;19.70;99.90
678;DHT22;321;48.814;9.132;2022-07-30T01:14:13;19.70;99.90
678;DHT22;321;48.814;9.132;2022-07-30T01:16:40;19.80;99.90
678;DHT22;321;48.814;9.132;2022-07-30T01:19:16;19.30;99.90
678;DHT22;321;48.814;9.132;2022-07-30T01:22:11;20.10;99.90
678;DHT22;321;48.814;9.132;2022-07-30T01:24:49;19.70;99.90
678;DHT22;321;48.814;9.132;2022-07-30T01:27:16;19.70;99.90
678;DHT22;321;48.814;9.132;2022-07-30T01:29:44;19.60;99.90
678;DHT22;321;48.814;9.132;2022-07-30T01:32:12;19.60;99.90
678;DHT22;321;48.814;9.132;2022-07-30T01:34:38;19.60;99.90
678;DHT22;321;48.814;9.132;2022-07-30T01:37:05;19.50;99.90
678;DHT22;321;48.814;9.132;2022-07-30T01:39:34;19.50;99.90
678;DHT22;321;48.814;9.132;2022-07-30T01:42:01;19.50;99.90
678;DHT22;321;48.814;9.132;2022-07-30T01:46:57;19.30;99.90
678;DHT22;321;48.814;9.132;2022-07-30T01:49:24;19.20;99.90
678;DHT22;321;48.814;9.132;2022-07-30T01:51:50;18.70;99.90
678;DHT22;321;48.814;9.132;2022-07-30T01:54:17;19.10;99.90
678;DHT22;321;48.814;9.132;2022-07-30T01:56:45;19.10;99.90
678;DHT22;321;48.814;9.132;2022-07-30T01:59:12;19.00;99.90
678;DHT22;321;48.814;9.132;2022-07-30T02:04:04;19.00;99.90
678;DHT22;321;48.814;9.132;2022-07-30T02:06:38;18.90;99.90
678;DHT22;321;48.814;9.132;2022-07-30T02:09:06;18.80;99.90
678;DHT22;321;48.814;9.132;2022-07-30T02:11:39;18.90;99.90
678;DHT22;321;48.814;9.132;2022-07-30T02:14:28;18.80;99.90
678;DHT22;321;48.814;9.132;2022-07-30T02:16:55;18.80;99.90
678;DHT22;321;48.814;9.132;2022-07-30T02:19:25;19.00;99.90
678;DHT22;321;48.814;9.132;2022-07-30T02:21:58;18.70;99.90
678;DHT22;321;48.814;9.132;2022-07-30T02:24:27;18.70;99.90
678;DHT22;321;48.814;9.132;2022-07-30T02:27:03;18.70;99.90
678;DHT22;321;48.814;9.132;2022-07-30T02:29:32;18.70;99.90
678;DHT22;321;48.814;9.132;2022-07-30T02:32:00;18.60;99.90
678;DHT22;321;48.814;9.132;2022-07-30T02:34:28;18.50;99.90
678;DHT22;321;48.814;9.132;2022-07-30T02:36:57;18.50;99.90
678;DHT22;321;48.814;9.132;2022-07-30T02:39:24;18.40;99.90
678;DHT22;321;48.814;9.132;2022-07-30T02:41:51;18.40;99.90
678;DHT22;321;48.814;9.132;2022-07-30T02:44:19;18.30;99.90
678;DHT22;321;48.814;9.132;2022-07-30T02:46:47;18.40;99.90
678;DHT22;321;48.814;9.132;2022-07-30T02:49:15;18.30;99.90
678;DHT22;321;48.814;9.132;2022-07-30T02:51:42;18.30;99.90
678;DHT22;321;48.814;9.132;2022-07-30T02:54:09;18.30;99.90
678;DHT22;321;48.814;9.132;2022-07-30T02:56:36;18.20;99.90
678;DHT22;321;48.814;9.132;2022-07-30T02:59:04;18.30;99.90
678;DHT22;321;48.814;9.132;2022-07-30T03:01:30;18.20;99.90
678;DHT22;321;48.814;9.132;2022-07-30T03:03:57;18.20;99.90
678;DHT22;321;48.814;9.132;2022-07-30T03:06:24;18.20;99.90
678;DHT22;321;48.814;9.132;2022-07-30T03:08:50;18.20;99.90
678;DHT22;321;48.814;9.132;2022-07-30T03:11:18;18.20;99.90
678;DHT22;321;48.814;9.132;2022-07-30T03:13:44;18.20;99.90
678;DHT22;321;48.814;9.132;2022-07-30T03:16:11;18.20;99.90
678;DHT22;321;48.814;9.132;2022-07-30T03:18:38;18.20;99.90
678;DHT22;321;48.814;9.132;2022-07-30T03:21:07;18.10;99.90
678;DHT22;321;48.814;9.132;2022-07-30T03:23:34;18.10;99.90
678;DHT22;321;48.814;9.132;2022-07-30T03:26:03;18.00;99.90
678;DHT22;321;48.814;9.132;2022-07-30T03:28:31;17.90;99.90
678;DHT22;321;48.814;9.132;2022-07-30T03:30:57;18.00;99.90
678;DHT22;321;48.814;9.132;2022-07-30T03:33:23;18.00;99.90
678;DHT22;321;48.814;9.132;2022-07-30T03:35:50;17.80;99.90
678;DHT22;321;48.814;9.132;2022-07-30T03:38:18;17.80;99.90
678;DHT22;321;48.814;9.132;2022-07-30T03:40:45;17.70;99.90
678;DHT22;321;48.814;9.132;2022-07-30T03:43:11;17.70;99.90
678;DHT22;321;48.814;9.132;2022-07-30T03:45:39;17.70;99.90
678;DHT22;321;48.814;9.132;2022-07-30T03:48:07;17.70;99.90
678;DHT22;321;48.814;9.132;2022-07-30T03:50:35;17.60;99.90
678;DHT22;321;48.814;9.132;2022-07-30T03:53:05;17.60;99.90
678;DHT22;321;48.814;9.132;2022-07-30T03:55:31;17.60;99.90
678;DHT22;321;48.814;9.132;2022-07-30T03:57:59;17.60;99.90
678;DHT22;321;48.814;9.132;2022-07-30T04:00:25;17.60;99.90
678;DHT22;321;48.814;9.132;2022-07-30T04:02:51;17.50;99.90
678;DHT22;321;48.814;9.132;2022-07-30T04:05:17;17.50;99.90
678;DHT22;321;48.814;9.132;2022-07-30T04:07:43;17.50;99.90
678;DHT22;321;48.814;9.132;2022-07-30T04:10:09;17.50;99.90
678;DHT22;321;48.814;9.132;2022-07-30T04:12:35;17.60;99.90
678;DHT22;321;48.814;9.132;2022-07-30T04:15:01;17.50;99.90
678;DHT22;321;48.814;9.132;2022-07-30T04:17:40;17.40;99.90
678;DHT22;321;48.814;9.132;2022-07-30T04:20:12;17.50;99.90
678;DHT22;321;48.814;9.132;2022-07-30T04:22:39;17.40;99.90
678;DHT22;321;48.814;9.132;2022-07-30T04:25:05;17.40;99.90
678;DHT22;321;48.814;9.132;2022-07-30T04:27:33;17.50;99.90
678;DHT22;321;48.814;9.132;2022-07-30T04:30:00;17.50;99.90
678;DHT22;321;48.814;9.132;2022-07-30T04:32:26;17.50;99.90
678;DHT22;321;48.814;9.132;2022-07-30T04:34:54;17.60;99.90
678;DHT22;321;48.814;9.132;2022-07-30T04:37:24;17.60;99.90
678;DHT22;321;48.814;9.132;2022-07-30T04:39:50;17.70;99.90
678;DHT22;321;48.814;9.132;2022-07-30T04:42:19;17.80;99.90
678;DHT22;321;48.814;9.132;2022-07-30T04:44:45;17.80;99.90
678;DHT22;321;48.814;9.132;2022-07-30T04:47:11;17.80;99.90
678;DHT22;321;48.814;9.132;2022-07-30T04:49:37;17.80;99.90
678;DHT22;321;48.814;9.132;2022-07-30T04:52:04;17.90;99.90
678;DHT22;321;48.814;9.132;2022-07-30T04:54:42;17.90;99.90
678;DHT22;321;48.814;9.132;2022-07-30T04:57:10;18.00;99.90
678;DHT22;321;48.814;9.132;2022-07-30T04:59:37;18.00;99.90
678;DHT22;321;48.814;9.132;2022-07-30T05:02:03;18.20;99.90
678;DHT22;321;48.814;9.132;2022-07-30T05:04:32;18.30;99.90
678;DHT22;321;48.814;9.132;2022-07-30T05:07:00;18.50;99.90
678;DHT22;321;48.814;9.132;2022-07-30T05:09:27;18.60;99.90
678;DHT22;321;48.814;9.132;2022-07-30T05:11:54;18.60;99.90
678;DHT22;321;48.814;9.132;2022-07-30T05:14:21;18.80;99.90
678;DHT22;321;48.814;9.132;2022-07-30T05:16:46;18.90;99.90
678;DHT22;321;48.814;9.132;2022-07-30T05:19:12;19.00;99.90
678;DHT22;321;48.814;9.132;2022-07-30T05:21:38;19.20;99.90
678;DHT22;321;48.814;9.132;2022-07-30T05:24:04;19.30;99.90
678;DHT22;321;48.814;9.132;2022-07-30T05:26:30;19.60;99.90
678;DHT22;321;48.814;9.132;2022-07-30T05:28:56;19.80;99.90
678;DHT22;321;48.814;9.132;2022-07-30T05:31:21;20.00;99.90
678;DHT22;321;48.814;9.132;2022-07-30T05:33:47;20.20;99.90
678;DHT22;321;48.814;9.132;2022-07-30T05:36:12;20.50;99.90
678;DHT22;321;48.814;9.132;2022-07-30T05:38:38;20.80;99.90
678;DHT22;321;48.814;9.132;2022-07-30T05:41:03;21.20;99.90
678;DHT22;321;48.814;9.132;2022-07-30T05:43:29;21.50;99.90
678;DHT22;321;48.814;9.132;2022-07-30T05:45:55;21.60;99.90
678;DHT22;321;48.814;9.132;2022-07-30T05:48:20;21.70;99.90
678;DHT22;321;48.814;9.132;2022-07-30T05:50:46;21.90;99.90
678;DHT22;321;48.814;9.132;2022-07-30T05:53:11;22.00;99.90
678;DHT22;321;48.814;9.132;2022-07-30T05:55:37;22.00;99.90
678;DHT22;321;48.814;9.132;2022-07-30T05:58:02;22.00;99.90
678;DHT22;321;48.814;9.132;2022-07-30T06:00:28;22.00;99.90
678;DHT22;321;48.814;9.132;2022-07-30T06:02:56;22.10;99.70
678;DHT22;321;48.814;9.132;2022-07-30T06:05:21;22.00;99.90
678;DHT22;321;48.814;9.132;2022-07-30T06:07:47;22.20;99.60
678;DHT22;321;48.814;9.132;2022-07-30T06:10:13;22.20;99.20
678;DHT22;321;48.814;9.132;2022-07-30T06:12:38;22.20;99.30
678;DHT22;321;48.814;9.132;2022-07-30T06:15:07;22.30;99.90
678;DHT22;321;48.814;9.132;2022-07-30T06:17:33;22.40;98.40
678;DHT22;321;48.814;9.132;2022-07-30T06:19:59;22.40;98.30
678;DHT22;321;48.814;9.132;2022-07-30T06:22:25;22.40;98.10
678;DHT22;321;48.814;9.132;2022-07-30T06:24:50;22.60;97.70
678;DHT22;321;48.814;9.132;2022-07-30T06:27:16;22.70;97.30
678;DHT22;321;48.814;9.132;2022-07-30T06:29:42;22.80;96.90
678;DHT22;321;48.814;9.132;2022-07-30T06:32:08;22.90;96.90
678;DHT22;321;48.814;9.132;2022-07-30T06:34:33;23.20;95.70
678;DHT22;321;48.814;9.132;2022-07-30T06:36:59;24.10;94.90
678;DHT22;321;48.814;9.132;2022-07-30T06:39:24;26.20;92.40
678;DHT22;321;48.814;9.132;2022-07-30T06:41:50;28.60;86.20
678;DHT22;321;48.814;9.132;2022-07-30T06:44:16;30.30;76.60
678;DHT22;321;48.814;9.132;2022-07-30T06:46:41;31.80;69.40
678;DHT22;321;48.814;9.132;2022-07-30T06:49:07;33.50;62.30
678;DHT22;321;48.814;9.132;2022-07-30T06:51:32;35.20;58.30
678;DHT22;321;48.814;9.132;2022-07-30T06:53:58;35.80;54.00
678;DHT22;321;48.814;9.132;2022-07-30T06:56:24;36.10;53.20
678;DHT22;321;48.814;9.132;2022-07-30T06:58:49;37.50;51.40
678;DHT22;321;48.814;9.132;2022-07-30T07:01:15;38.40;47.70
678;DHT22;321;48.814;9.132;2022-07-30T07:03:40;39.00;47.10
678;DHT22;321;48.814;9.132;2022-07-30T07:06:06;38.80;45.30
678;DHT22;321;48.814;9.132;2022-07-30T07:08:35;37.40;46.30
678;DHT22;321;48.814;9.132;2022-07-30T07:11:00;37.00;46.70
678;DHT22;321;48.814;9.132;2022-07-30T07:13:26;35.80;47.70
678;DHT22;321;48.814;9.132;2022-07-30T07:15:51;34.50;49.00
678;DHT22;321;48.814;9.132;2022-07-30T07:18:17;33.20;51.90
678;DHT22;321;48.814;9.132;2022-07-30T07:20:42;32.30;53.10
678;DHT22;321;48.814;9.132;2022-07-30T07:23:11;31.60;54.20
678;DHT22;321;48.814;9.132;2022-07-30T07:25:36;31.70;54.60
678;DHT22;321;48.814;9.132;2022-07-30T07:28:02;31.60;55.90
678;DHT22;321;48.814;9.132;2022-07-30T07:30:29;31.40;55.80
678;DHT22;321;48.814;9.132;2022-07-30T07:32:54;31.10;56.00
678;DHT22;321;48.814;9.132;2022-07-30T07:35:22;30.80;56.70
678;DHT22;321;48.814;9.132;2022-07-30T07:37:48;30.80;56.30
678;DHT22;321;48.814;9.132;2022-07-30T07:40:13;31.30;56.10
678;DHT22;321;48.814;9.132;2022-07-30T07:42:39;32.60;54.10
678;DHT22;321;48.814;9.132;2022-07-30T07:45:06;34.90;52.20
678;DHT22;321;48.814;9.132;2022-07-30T07:47:45;37.00;49.20
678;DHT22;321;48.814;9.132;2022-07-30T07:50:10;38.90;45.20
678;DHT22;321;48.814;9.132;2022-07-30T07:52:36;40.60;42.20
678;DHT22;321;48.814;9.132;2022-07-30T07:55:01;41.70;40.70
678;DHT22;321;48.814;9.132;2022-07-30T07:57:27;42.70;38.10
678;DHT22;321;48.814;9.132;2022-07-30T07:59:52;43.10;37.20
678;DHT22;321;48.814;9.132;2022-07-30T08:02:19;43.30;35.00
678;DHT22;321;48.814;9.132;2022-07-30T08:04:45;43.30;35.20
678;DHT22;321;48.814;9.132;2022-07-30T08:07:11;43.50;34.60
678;DHT22;321;48.814;9.132;2022-07-30T08:09:37;43.20;35.00
678;DHT22;321;48.814;9.132;2022-07-30T08:12:03;42.30;35.00
678;DHT22;321;48.814;9.132;2022-07-30T08:14:28;41.90;35.60
678;DHT22;321;48.814;9.132;2022-07-30T08:16:54;41.60;36.20
678;DHT22;321;48.814;9.132;2022-07-30T08:19:19;41.30;36.60
678;DHT22;321;48.814;9.132;2022-07-30T08:21:45;40.40;36.00
678;DHT22;321;48.814;9.132;2022-07-30T08:24:11;40.50;36.50
678;DHT22;321;48.814;9.132;2022-07-30T08:26:36;40.30;36.80
678;DHT22;321;48.814;9.132;2022-07-30T08:29:02;40.40;36.40
678;DHT22;321;48.814;9.132;2022-07-30T08:31:28;40.40;36.10
678;DHT22;321;48.814;9.132;2022-07-30T08:33:53;40.30;35.90
678;DHT22;321;48.814;9.132;2022-07-30T08:36:19;39.90;35.30
678;DHT22;321;48.814;9.132;2022-07-30T08:38:47;39.80;35.90
678;DHT22;321;48.814;9.132;2022-07-30T08:41:17;39.60;35.80
678;DHT22;321;48.814;9.132;2022-07-30T08:43:44;39.40;36.40
678;DHT22;321;48.814;9.132;2022-07-30T08:46:11;39.50;36.50
678;DHT22;321;48.814;9.132;2022-07-30T08:48:40;39.80;36.10
678;DHT22;321;48.814;9.132;2022-07-30T08:51:09;39.70;34.90
678;DHT22;321;48.814;9.132;2022-07-30T08:53:35;39.50;35.40
678;DHT22;321;48.814;9.132;2022-07-30T08:56:02;39.00;35.90
678;DHT22;321;48.814;9.132;2022-07-30T08:58:29;38.60;35.80
678;DHT22;321;48.814;9.132;2022-07-30T09:00:56;38.20;37.30
678;DHT22;321;48.814;9.132;2022-07-30T09:03:21;38.40;36.80
678;DHT22;321;48.814;9.132;2022-07-30T09:05:47;38.80;36.10
678;DHT22;321;48.814;9.132;2022-07-30T09:08:13;38.30;36.60
678;DHT22;321;48.814;9.132;2022-07-30T09:10:39;38.20;36.80
678;DHT22;321;48.814;9.132;2022-07-30T09:15:50;37.50;37.60
678;DHT22;321;48.814;9.132;2022-07-30T09:21:01;37.20;36.80
678;DHT22;321;48.814;9.132;2022-07-30T09:23:37;37.00;38.20
678;DHT22;321;48.814;9.132;2022-07-30T09:26:03;36.70;38.70
678;DHT22;321;48.814;9.132;2022-07-30T09:28:31;36.60;39.30
678;DHT22;321;48.814;9.132;2022-07-30T09:30:58;36.30;39.10
678;DHT22;321;48.814;9.132;2022-07-30T09:33:32;36.00;39.50
678;DHT22;321;48.814;9.132;2022-07-30T09:35:58;35.70;40.00
678;DHT22;321;48.814;9.132;2022-07-30T09:38:23;35.70;39.80
678;DHT22;321;48.814;9.132;2022-07-30T09:40:51;35.90;39.20
678;DHT22;321;48.814;9.132;2022-07-30T09:43:17;36.00;39.30
678;DHT22;321;48.814;9.132;2022-07-30T09:45:54;35.80;39.60
678;DHT22;321;48.814;9.132;2022-07-30T09:48:23;35.60;39.50
678;DHT22;321;48.814;9.132;2022-07-30T09:50:50;35.40;40.50
678;DHT22;321;48.814;9.132;2022-07-30T09:53:17;35.70;39.50
678;DHT22;321;48.814;9.132;2022-07-30T09:55:43;36.50;38.30
678;DHT22;321;48.814;9.132;2022-07-30T09:58:10;37.20;38.00
678;DHT22;321;48.814;9.132;2022-07-30T10:00:36;38.30;36.50
678;DHT22;321;48.814;9.132;2022-07-30T10:03:19;38.50;34.60
678;DHT22;321;48.814;9.132;2022-07-30T10:05:52;39.00;35.60
678;DHT22;321;48.814;9.132;2022-07-30T10:08:18;38.10;36.30
678;DHT22;321;48.814;9.132;2022-07-30T10:10:45;37.60;36.30
678;DHT22;321;48.814;9.132;2022-07-30T10:13:13;36.70;37.50
678;DHT22;321;48.814;9.132;2022-07-30T10:15:39;36.50;37.60
678;DHT22;321;48.814;9.132;2022-07-30T10:18:05;37.00;37.20
678;DHT22;321;48.814;9.132;2022-07-30T10:20:31;37.70;37.30
678;DHT22;321;48.814;9.132;2022-07-30T10:22:57;38.10;36.70
678;DHT22;321;48.814;9.132;2022-07-30T10:25:25;38.70;35.60
678;DHT22;321;48.814;9.132;2022-07-30T10:27:51;39.40;34.60
678;DHT22;321;48.814;9.132;2022-07-30T10:30:17;40.30;34.70
678;DHT22;321;48.814;9.132;2022-07-30T10:32:44;40.90;33.70
678;DHT22;321;48.814;9.132;2022-07-30T10:35:13;41.30;32.70
678;DHT22;321;48.814;9.132;2022-07-30T10:37:46;41.80;31.90
678;DHT22;321;48.814;9.132;2022-07-30T10:40:33;41.90;30.60
678;DHT22;321;48.814;9.132;2022-07-30T10:43:39;41.10;31.20
678;DHT22;321;48.814;9.132;2022-07-30T10:48:52;37.70;35.30
678;DHT22;321;48.814;9.132;2022-07-30T10:51:43;37.70;35.70
678;DHT22;321;48.814;9.132;2022-07-30T10:54:41;37.70;35.40
678;DHT22;321;48.814;9.132;2022-07-30T10:57:15;37.40;35.50
678;DHT22;321;48.814;9.132;2022-07-30T11:02:21;36.10;37.10
678;DHT22;321;48.814;9.132;2022-07-30T11:04:47;35.70;37.70
678;DHT22;321;48.814;9.132;2022-07-30T11:09:49;34.80;39.60
678;DHT22;321;48.814;9.132;2022-07-30T11:15:13;33.70;41.80
678;DHT22;321;48.814;9.132;2022-07-30T11:18:00;33.70;41.00
678;DHT22;321;48.814;9.132;2022-07-30T11:20:27;34.50;40.10
678;DHT22;321;48.814;9.132;2022-07-30T11:22:53;35.20;38.60
678;DHT22;321;48.814;9.132;2022-07-30T11:27:58;35.70;37.40
678;DHT22;321;48.814;9.132;2022-07-30T11:35:29;36.60;37.00
678;DHT22;321;48.814;9.132;2022-07-30T11:40:25;38.30;34.30
678;DHT22;321;48.814;9.132;2022-07-30T11:42:51;38.60;33.50
678;DHT22;321;48.814;9.132;2022-07-30T11:45:36;39.20;33.60
678;DHT22;321;48.814;9.132;2022-07-30T11:48:08;39.40;32.80
678;DHT22;321;48.814;9.132;2022-07-30T11:50:34;39.60;32.50
678;DHT22;321;48.814;9.132;2022-07-30T11:53:05;39.50;32.40
678;DHT22;321;48.814;9.132;2022-07-30T11:58:00;39.30;32.30
678;DHT22;321;48.814;9.132;2022-07-30T12:03:13;40.00;32.30
678;DHT22;321;48.814;9.132;2022-07-30T12:05:40;39.90;31.90
678;DHT22;321;48.814;9.132;2022-07-30T12:08:06;38.80;31.90
678;DHT22;321;48.814;9.132;2022-07-30T12:10:32;38.00;34.00
678;DHT22;321;48.814;9.132;2022-07-30T12:13:11;36.80;34.10
678;DHT22;321;48.814;9.132;2022-07-30T12:15:42;35.70;36.00
678;DHT22;321;48.814;9.132;2022-07-30T12:18:08;34.80;36.80
678;DHT22;321;48.814;9.132;2022-07-30T12:20:37;33.70;37.80
678;DHT22;321;48.814;9.132;2022-07-30T12:23:11;33.20;39.70
678;DHT22;321;48.814;9.132;2022-07-30T12:25:40;32.90;39.90
678;DHT22;321;48.814;9.132;2022-07-30T12:28:10;32.50;40.10
678;DHT22;321;48.814;9.132;2022-07-30T12:30:42;32.10;43.20
678;DHT22;321;48.814;9.132;2022-07-30T12:33:07;32.00;41.60
678;DHT22;321;48.814;9.132;2022-07-30T12:35:47;31.90;42.00
678;DHT22;321;48.814;9.132;2022-07-30T12:38:14;31.60;42.10
678;DHT22;321;48.814;9.132;2022-07-30T12:43:17;30.80;42.70
678;DHT22;321;48.814;9.132;2022-07-30T12:45:42;30.50;42.00
678;DHT22;321;48.814;9.132;2022-07-30T12:48:11;30.40;43.00
678;DHT22;321;48.814;9.132;2022-07-30T12:50:37;30.20;43.70
678;DHT22;321;48.814;9.132;2022-07-30T12:53:03;30.10;44.00
678;DHT22;321;48.814;9.132;2022-07-30T12:55:33;30.10;44.20
678;DHT22;321;48.814;9.132;2022-07-30T12:58:03;30.00;44.70
678;DHT22;321;48.814;9.132;2022-07-30T13:00:46;30.00;44.10
678;DHT22;321;48.814;9.132;2022-07-30T13:03:25;29.80;45.20
678;DHT22;321;48.814;9.132;2022-07-30T13:05:55;29.80;45.70
678;DHT22;321;48.814;9.132;2022-07-30T13:11:09;29.40;45.40
678;DHT22;321;48.814;9.132;2022-07-30T13:13:34;29.30;46.60
678;DHT22;321;48.814;9.132;2022-07-30T13:16:03;29.10;46.60
678;DHT22;321;48.814;9.132;2022-07-30T13:18:30;28.90;47.30
678;DHT22;321;48.814;9.132;2022-07-30T13:20:56;29.00;47.30
678;DHT22;321;48.814;9.132;2022-07-30T13:23:23;29.00;47.00
678;DHT22;321;48.814;9.132;2022-07-30T13:25:48;29.10;47.40
678;DHT22;321;48.814;9.132;2022-07-30T13:28:14;29.10;47.40
678;DHT22;321;48.814;9.132;2022-07-30T13:30:40;29.10;47.70
678;DHT22;321;48.814;9.132;2022-07-30T13:33:06;29.10;45.60
678;DHT22;321;48.814;9.132;2022-07-30T13:35:32;29.10;47.00
678;DHT22;321;48.814;9.132;2022-07-30T13:37:57;28.60;54.60
678;DHT22;321;48.814;9.132;2022-07-30T13:40:25;28.90;47.60
678;DHT22;321;48.814;9.132;2022-07-30T13:42:51;28.80;47.20
678;DHT22;321;48.814;9.132;2022-07-30T13:45:16;28.80;47.80
678;DHT22;321;48.814;9.132;2022-07-30T13:47:42;28.80;47.50
678;DHT22;321;48.814;9.132;2022-07-30T13:50:08;28.80;48.20
678;DHT22;321;48.814;9.132;2022-07-30T13:52:33;28.80;48.40
678;DHT22;321;48.814;9.132;2022-07-30T13:54:59;28.80;48.50
678;DHT22;321;48.814;9.132;2022-07-30T13:57:24;28.80;48.10
678;DHT22;321;48.814;9.132;2022-07-30T13:59:50;28.90;48.30
678;DHT22;321;48.814;9.132;2022-07-30T14:02:16;28.90;48.40
678;DHT22;321;48.814;9.132;2022-07-30T14:04:42;29.00;48.40
678;DHT22;321;48.814;9.132;2022-07-30T14:07:08;29.00;47.60
678;DHT22;321;48.814;9.132;2022-07-30T14:09:33;29.00;48.30
678;DHT22;321;48.814;9.132;2022-07-30T14:11:59;29.00;48.30
678;DHT22;321;48.814;9.132;2022-07-30T14:14:24;28.80;47.90
678;DHT22;321;48.814;9.132;2022-07-30T14:16:50;28.70;49.30
678;DHT22;321;48.814;9.132;2022-07-30T14:19:17;28.70;49.40
678;DHT22;321;48.814;9.132;2022-07-30T14:21:43;28.70;48.40
678;DHT22;321;48.814;9.132;2022-07-30T14:24:09;28.70;48.50
678;DHT22;321;48.814;9.132;2022-07-30T14:26:37;28.80;48.50
678;DHT22;321;48.814;9.132;2022-07-30T14:29:06;28.90;48.60
678;DHT22;321;48.814;9.132;2022-07-30T14:31:33;28.90;48.60
678;DHT22;321;48.814;9.132;2022-07-30T14:33:58;29.00;48.80
678;DHT22;321;48.814;9.132;2022-07-30T14:36:24;28.90;48.40
678;DHT22;321;48.814;9.132;2022-07-30T14:38:54;28.90;48.90
678;DHT22;321;48.814;9.132;2022-07-30T14:41:19;28.80;48.60
678;DHT22;321;48.814;9.132;2022-07-30T14:43:45;28.90;49.40
678;DHT22;321;48.814;9.132;2022-07-30T14:46:10;28.90;48.80
678;DHT22;321;48.814;9.132;2022-07-30T14:48:36;29.00;49.20
678;DHT22;321;48.814;9.132;2022-07-30T14:51:02;28.90;49.00
678;DHT22;321;48.814;9.132;2022-07-30T14:53:29;29.00;48.10
678;DHT22;321;48.814;9.132;2022-07-30T14:55:55;29.00;48.60
678;DHT22;321;48.814;9.132;2022-07-30T14:58:20;29.10;48.70
678;DHT22;321;48.814;9.132;2022-07-30T15:00:46;29.00;48.80
678;DHT22;321;48.814;9.132;2022-07-30T15:03:11;28.90;47.80
678;DHT22;321;48.814;9.132;2022-07-30T15:05:37;28.90;48.40
678;DHT22;321;48.814;9.132;2022-07-30T15:08:03;28.80;47.60
678;DHT22;321;48.814;9.132;2022-07-30T15:10:28;28.80;47.10
678;DHT22;321;48.814;9.132;2022-07-30T15:12:54;28.60;48.50
678;DHT22;321;48.814;9.132;2022-07-30T15:15:19;28.60;48.40
678;DHT22;321;48.814;9.132;2022-07-30T15:17:45;28.60;49.00
678;DHT22;321;48.814;9.132;2022-07-30T15:20:11;28.50;49.30
678;DHT22;321;48.814;9.132;2022-07-30T15:22:36;28.50;48.70
678;DHT22;321;48.814;9.132;2022-07-30T15:25:04;28.50;48.50
678;DHT22;321;48.814;9.132;2022-07-30T15:27:30;28.50;49.10
678;DHT22;321;48.814;9.132;2022-07-30T15:29:55;28.40;48.70
678;DHT22;321;48.814;9.132;2022-07-30T15:32:21;28.20;48.60
678;DHT22;321;48.814;9.132;2022-07-30T15:34:46;28.10;49.30
678;DHT22;321;48.814;9.132;2022-07-30T15:37:12;28.10;49.50
678;DHT22;321;48.814;9.132;2022-07-30T15:39:38;28.10;49.80
678;DHT22;321;48.814;9.132;2022-07-30T15:42:03;28.20;50.70
678;DHT22;321;48.814;9.132;2022-07-30T15:44:30;28.20;49.20
678;DHT22;321;48.814;9.132;2022-07-30T15:46:55;28.20;49.60
678;DHT22;321;48.814;9.132;2022-07-30T15:49:21;28.20;50.50
678;DHT22;321;48.814;9.132;2022-07-30T15:51:47;28.30;50.20
678;DHT22;321;48.814;9.132;2022-07-30T15:54:18;28.40;50.10
678;DHT22;321;48.814;9.132;2022-07-30T15:56:44;28.50;50.10
678;DHT22;321;48.814;9.132;2022-07-30T15:59:12;28.50;49.70
678;DHT22;321;48.814;9.132;2022-07-30T16:01:38;28.50;49.80
678;DHT22;321;48.814;9.132;2022-07-30T16:04:04;28.50;50.10
678;DHT22;321;48.814;9.132;2022-07-30T16:06:30;28.60;50.00
678;DHT22;321;48.814;9.132;2022-07-30T16:08:56;28.60;49.60
678;DHT22;321;48.814;9.132;2022-07-30T16:11:22;28.60;49.30
678;DHT22;321;48.814;9.132;2022-07-30T16:13:48;28.70;49.10
678;DHT22;321;48.814;9.132;2022-07-30T16:16:14;28.70;48.80
678;DHT22;321;48.814;9.132;2022-07-30T16:18:39;28.70;48.80
678;DHT22;321;48.814;9.132;2022-07-30T16:21:05;28.70;49.50
678;DHT22;321;48.814;9.132;2022-07-30T16:23:31;28.60;48.40
678;DHT22;321;48.814;9.132;2022-07-30T16:25:56;28.50;48.50
678;DHT22;321;48.814;9.132;2022-07-30T16:28:22;28.30;49.60
678;DHT22;321;48.814;9.132;2022-07-30T16:30:48;28.30;48.70
678;DHT22;321;48.814;9.132;2022-07-30T16:33:14;28.30;49.30
678;DHT22;321;48.814;9.132;2022-07-30T16:35:40;28.40;49.30
678;DHT22;321;48.814;9.132;2022-07-30T16:38:06;28.40;48.70
678;DHT22;321;48.814;9.132;2022-07-30T16:40:33;28.30;49.40
678;DHT22;321;48.814;9.132;2022-07-30T16:42:59;28.20;48.50
678;DHT22;321;48.814;9.132;2022-07-30T16:45:24;28.20;49.10
678;DHT22;321;48.814;9.132;2022-07-30T16:47:50;28.10;48.70
678;DHT22;321;48.814;9.132;2022-07-30T16:50:17;28.00;48.10
678;DHT22;321;48.814;9.132;2022-07-30T16:52:43;27.90;48.50
678;DHT22;321;48.814;9.132;2022-07-30T16:55:09;27.80;49.20
678;DHT22;321;48.814;9.132;2022-07-30T16:57:35;27.80;49.80
678;DHT22;321;48.814;9.132;2022-07-30T17:00:01;27.80;50.30
678;DHT22;321;48.814;9.132;2022-07-30T17:02:28;27.80;50.60
678;DHT22;321;48.814;9.132;2022-07-30T17:04:54;27.80;50.90
678;DHT22;321;48.814;9.132;2022-07-30T17:07:19;27.80;51.20
678;DHT22;321;48.814;9.132;2022-07-30T17:09:45;27.70;50.70
678;DHT22;321;48.814;9.132;2022-07-30T17:12:14;27.50;50.90
678;DHT22;321;48.814;9.132;2022-07-30T17:14:40;27.30;51.00
678;DHT22;321;48.814;9.132;2022-07-30T17:17:06;27.40;52.20
678;DHT22;321;48.814;9.132;2022-07-30T17:19:32;27.40;52.00
678;DHT22;321;48.814;9.132;2022-07-30T17:21:58;27.40;50.90
678;DHT22;321;48.814;9.132;2022-07-30T17:24:23;27.40;50.50